DLH78W EDDH-EKCH
Flight info
| Callsign | DLH78W |
|---|---|
| Flight time | 0h 39m |
| Altitude | 23000 |
| Route | LUGEG3G/33 LUGEG P605 GESKA/N0388F220 Z711 MONAK |
| Aircraft | A20N/M-SDE2E3FGHIRWXY/LB1 |
Departure
| Time | 2026-05-07 18:07 |
|---|---|
| Airport | Hamburg Helmut Schmidt Airport (EDDH) |
Arrival
| Time | 2026-05-07 18:47 |
|---|---|
| Airport | Copenhagen Kastrup Airport (EKCH) |
| Time | Latitude | Longitude | Altitude | Speed | Heading |
|---|---|---|---|---|---|
| 2026-05-07 17:45 | 53.63255 | 10.00357 | 49 ft | 0 kts | 86° |
| 2026-05-07 17:56 | 53.63255 | 10.00340 | 49 ft | 3 kts | 86° |
| 2026-05-07 17:57 | 53.63253 | 10.00307 | 49 ft | 3 kts | 86° |
| 2026-05-07 17:57 | 53.63253 | 10.00285 | 49 ft | 3 kts | 86° |
| 2026-05-07 17:57 | 53.63252 | 10.00271 | 49 ft | 0 kts | 86° |
| 2026-05-07 17:57 | 53.63251 | 10.00234 | 49 ft | 4 kts | 86° |
| 2026-05-07 17:58 | 53.63251 | 10.00184 | 49 ft | 4 kts | 114° |
| 2026-05-07 17:58 | 53.63261 | 10.00166 | 43 ft | 0 kts | 174° |
| 2026-05-07 18:01 | 53.63248 | 10.00169 | 49 ft | 6 kts | 170° |
| 2026-05-07 18:01 | 53.63182 | 10.00187 | 48 ft | 13 kts | 171° |
| 2026-05-07 18:01 | 53.63102 | 10.00198 | 47 ft | 12 kts | 187° |
| 2026-05-07 18:02 | 53.62979 | 10.00088 | 43 ft | 1 kts | 211° |
| 2026-05-07 18:02 | 53.62961 | 10.00069 | 44 ft | 5 kts | 212° |
| 2026-05-07 18:02 | 53.62927 | 10.00002 | 45 ft | 10 kts | 238° |
| 2026-05-07 18:03 | 53.62901 | 9.99924 | 45 ft | 0 kts | 242° |
| 2026-05-07 18:05 | 53.62893 | 9.99900 | 42 ft | 5 kts | 242° |
| 2026-05-07 18:05 | 53.62872 | 9.99833 | 45 ft | 6 kts | 244° |
| 2026-05-07 18:05 | 53.62874 | 9.99754 | 47 ft | 8 kts | 295° |
| 2026-05-07 18:05 | 53.62905 | 9.99712 | 47 ft | 0 kts | 331° |
| 2026-05-07 18:06 | 53.62915 | 9.99703 | 47 ft | 14 kts | 331° |
| 2026-05-07 18:07 | 53.63291 | 9.99379 | 50 ft | 105 kts | 333° |
| 2026-05-07 18:07 | 53.64165 | 9.98625 | 92 ft | 169 kts | 333° |
| 2026-05-07 18:07 | 53.65144 | 9.97633 | 1014 ft | 163 kts | 332° |
| 2026-05-07 18:07 | 53.66166 | 9.96715 | 1908 ft | 169 kts | 338° |
| 2026-05-07 18:08 | 53.67283 | 9.95826 | 2572 ft | 187 kts | 338° |
| 2026-05-07 18:08 | 53.68520 | 9.94954 | 3143 ft | 205 kts | 347° |
| 2026-05-07 18:08 | 53.70002 | 9.94627 | 3768 ft | 219 kts | 5° |
| 2026-05-07 18:08 | 53.71536 | 9.94696 | 4830 ft | 220 kts | 4° |
| 2026-05-07 18:09 | 53.73003 | 9.95138 | 5831 ft | 217 kts | 29° |
| 2026-05-07 18:09 | 53.74128 | 9.96802 | 6734 ft | 218 kts | 60° |
| 2026-05-07 18:09 | 53.74822 | 9.99157 | 7458 ft | 233 kts | 65° |
| 2026-05-07 18:09 | 53.75554 | 10.01777 | 7973 ft | 257 kts | 65° |
| 2026-05-07 18:10 | 53.76343 | 10.04572 | 8588 ft | 274 kts | 64° |
| 2026-05-07 18:10 | 53.77182 | 10.07515 | 9506 ft | 280 kts | 64° |
| 2026-05-07 18:10 | 53.78046 | 10.10523 | 10390 ft | 288 kts | 64° |
| 2026-05-07 18:10 | 53.78962 | 10.13704 | 10825 ft | 311 kts | 64° |
| 2026-05-07 18:11 | 53.79935 | 10.17081 | 11178 ft | 333 kts | 64° |
| 2026-05-07 18:11 | 53.80616 | 10.19449 | 11604 ft | 340 kts | 64° |
| 2026-05-07 18:11 | 53.82015 | 10.24321 | 12748 ft | 346 kts | 64° |
| 2026-05-07 18:11 | 53.83076 | 10.28018 | 13606 ft | 352 kts | 64° |
| 2026-05-07 18:12 | 53.84141 | 10.31735 | 14374 ft | 357 kts | 64° |
| 2026-05-07 18:12 | 53.85228 | 10.35543 | 15144 ft | 361 kts | 64° |
| 2026-05-07 18:12 | 53.86326 | 10.39399 | 15898 ft | 365 kts | 64° |
| 2026-05-07 18:12 | 53.87437 | 10.43305 | 16651 ft | 369 kts | 64° |
| 2026-05-07 18:13 | 53.88558 | 10.47259 | 17393 ft | 374 kts | 64° |
| 2026-05-07 18:13 | 53.89677 | 10.51207 | 18112 ft | 378 kts | 64° |
| 2026-05-07 18:13 | 53.90823 | 10.55258 | 18768 ft | 383 kts | 64° |
| 2026-05-07 18:13 | 53.91984 | 10.59372 | 19409 ft | 387 kts | 64° |
| 2026-05-07 18:14 | 53.93173 | 10.63507 | 20041 ft | 391 kts | 61° |
| 2026-05-07 18:14 | 53.94621 | 10.67426 | 20634 ft | 394 kts | 53° |
| 2026-05-07 18:14 | 53.96386 | 10.71006 | 21240 ft | 398 kts | 45° |
| 2026-05-07 18:14 | 53.98252 | 10.74352 | 21844 ft | 401 kts | 46° |
| 2026-05-07 18:15 | 54.00176 | 10.77840 | 22439 ft | 405 kts | 46° |
| 2026-05-07 18:15 | 54.02112 | 10.81369 | 22972 ft | 409 kts | 46° |
| 2026-05-07 18:15 | 54.04065 | 10.84936 | 23110 ft | 411 kts | 46° |
| 2026-05-07 18:15 | 54.06012 | 10.88500 | 23117 ft | 410 kts | 46° |
| 2026-05-07 18:16 | 54.07931 | 10.92014 | 23112 ft | 410 kts | 46° |
| 2026-05-07 18:16 | 54.09875 | 10.95577 | 23116 ft | 410 kts | 46° |
| 2026-05-07 18:16 | 54.11818 | 10.99141 | 23119 ft | 409 kts | 46° |
| 2026-05-07 18:16 | 54.13758 | 11.02720 | 23010 ft | 410 kts | 46° |
| 2026-05-07 18:17 | 54.15693 | 11.06307 | 22581 ft | 410 kts | 46° |
| 2026-05-07 18:17 | 54.17592 | 11.09834 | 22022 ft | 406 kts | 46° |
| 2026-05-07 18:17 | 54.19496 | 11.13376 | 21472 ft | 401 kts | 46° |
| 2026-05-07 18:17 | 54.21370 | 11.16866 | 20927 ft | 397 kts | 47° |
| 2026-05-07 18:18 | 54.23227 | 11.20336 | 20391 ft | 392 kts | 47° |
| 2026-05-07 18:18 | 54.25064 | 11.23775 | 19866 ft | 388 kts | 47° |
| 2026-05-07 18:18 | 54.26854 | 11.27130 | 19360 ft | 384 kts | 47° |
| 2026-05-07 18:18 | 54.28655 | 11.30508 | 18852 ft | 381 kts | 47° |
| 2026-05-07 18:19 | 54.30442 | 11.33866 | 18343 ft | 381 kts | 47° |
| 2026-05-07 18:19 | 54.32219 | 11.37207 | 17769 ft | 377 kts | 47° |
| 2026-05-07 18:19 | 54.33979 | 11.40523 | 17207 ft | 373 kts | 47° |
| 2026-05-07 18:19 | 54.35715 | 11.43730 | 16659 ft | 369 kts | 43° |
| 2026-05-07 18:20 | 54.37678 | 11.46554 | 16126 ft | 366 kts | 37° |
| 2026-05-07 18:20 | 54.39702 | 11.49184 | 15585 ft | 362 kts | 36° |
| 2026-05-07 18:20 | 54.41714 | 11.51773 | 15062 ft | 359 kts | 37° |
| 2026-05-07 18:20 | 54.43674 | 11.54337 | 14552 ft | 356 kts | 37° |
| 2026-05-07 18:21 | 54.45631 | 11.56946 | 14047 ft | 354 kts | 38° |
| 2026-05-07 18:21 | 54.47549 | 11.59532 | 13489 ft | 351 kts | 38° |
| 2026-05-07 18:21 | 54.49465 | 11.62136 | 12937 ft | 348 kts | 38° |
| 2026-05-07 18:21 | 54.51360 | 11.64717 | 12383 ft | 346 kts | 38° |
| 2026-05-07 18:22 | 54.53222 | 11.67259 | 11849 ft | 343 kts | 38° |
| 2026-05-07 18:22 | 54.54486 | 11.68986 | 11488 ft | 341 kts | 38° |
| 2026-05-07 18:22 | 54.56943 | 11.72343 | 10790 ft | 338 kts | 38° |
| 2026-05-07 18:22 | 54.58765 | 11.74836 | 10280 ft | 336 kts | 38° |
| 2026-05-07 18:23 | 54.60589 | 11.77335 | 9834 ft | 331 kts | 38° |
| 2026-05-07 18:23 | 54.62373 | 11.79780 | 9434 ft | 323 kts | 38° |
| 2026-05-07 18:23 | 54.64089 | 11.82135 | 9174 ft | 304 kts | 38° |
| 2026-05-07 18:23 | 54.65664 | 11.84300 | 9130 ft | 280 kts | 38° |
| 2026-05-07 18:24 | 54.67184 | 11.86394 | 9132 ft | 281 kts | 39° |
| 2026-05-07 18:24 | 54.68716 | 11.88504 | 9136 ft | 279 kts | 39° |
| 2026-05-07 18:24 | 54.70217 | 11.90575 | 9130 ft | 279 kts | 39° |
| 2026-05-07 18:24 | 54.71743 | 11.92682 | 9144 ft | 281 kts | 39° |
| 2026-05-07 18:25 | 54.73274 | 11.94796 | 9131 ft | 279 kts | 39° |
| 2026-05-07 18:25 | 54.74787 | 11.96888 | 9130 ft | 279 kts | 39° |
| 2026-05-07 18:25 | 54.76306 | 11.98990 | 9138 ft | 279 kts | 39° |
| 2026-05-07 18:25 | 54.77804 | 12.01066 | 9127 ft | 279 kts | 39° |
| 2026-05-07 18:26 | 54.79324 | 12.03174 | 9132 ft | 279 kts | 39° |
| 2026-05-07 18:26 | 54.80848 | 12.05289 | 9125 ft | 279 kts | 39° |
| 2026-05-07 18:26 | 54.82348 | 12.07373 | 9134 ft | 278 kts | 39° |
| 2026-05-07 18:26 | 54.83862 | 12.09479 | 9139 ft | 278 kts | 39° |
| 2026-05-07 18:27 | 54.85358 | 12.11563 | 9133 ft | 279 kts | 39° |
| 2026-05-07 18:27 | 54.86877 | 12.13680 | 9132 ft | 278 kts | 39° |
| 2026-05-07 18:27 | 54.88389 | 12.15788 | 9132 ft | 278 kts | 39° |
| 2026-05-07 18:27 | 54.89387 | 12.17182 | 9144 ft | 278 kts | 39° |
| 2026-05-07 18:28 | 54.91399 | 12.19994 | 9138 ft | 278 kts | 39° |
| 2026-05-07 18:28 | 54.92910 | 12.22108 | 9133 ft | 278 kts | 39° |
| 2026-05-07 18:28 | 54.94405 | 12.24201 | 9141 ft | 278 kts | 39° |
| 2026-05-07 18:28 | 54.95919 | 12.26325 | 9129 ft | 279 kts | 39° |
| 2026-05-07 18:29 | 54.97454 | 12.28394 | 9141 ft | 278 kts | 34° |
| 2026-05-07 18:29 | 54.99100 | 12.30106 | 9143 ft | 279 kts | 29° |
| 2026-05-07 18:29 | 55.00814 | 12.31709 | 9132 ft | 279 kts | 28° |
| 2026-05-07 18:29 | 55.02527 | 12.33302 | 9132 ft | 279 kts | 29° |
| 2026-05-07 18:30 | 55.04240 | 12.34928 | 9140 ft | 279 kts | 29° |
| 2026-05-07 18:30 | 55.05923 | 12.36559 | 9128 ft | 279 kts | 30° |
| 2026-05-07 18:30 | 55.07619 | 12.38225 | 9131 ft | 279 kts | 30° |
| 2026-05-07 18:30 | 55.09313 | 12.39899 | 9145 ft | 278 kts | 30° |
| 2026-05-07 18:31 | 55.10431 | 12.41006 | 9139 ft | 278 kts | 30° |
| 2026-05-07 18:31 | 55.12672 | 12.43231 | 9086 ft | 280 kts | 30° |
| 2026-05-07 18:31 | 55.14368 | 12.44915 | 8845 ft | 279 kts | 30° |
| 2026-05-07 18:31 | 55.15478 | 12.46018 | 8680 ft | 276 kts | 30° |
| 2026-05-07 18:32 | 55.17147 | 12.47677 | 8417 ft | 276 kts | 30° |
| 2026-05-07 18:32 | 55.18811 | 12.49334 | 8192 ft | 273 kts | 30° |
| 2026-05-07 18:32 | 55.20464 | 12.50981 | 8023 ft | 273 kts | 30° |
| 2026-05-07 18:32 | 55.22100 | 12.52612 | 7877 ft | 272 kts | 30° |
| 2026-05-07 18:33 | 55.23746 | 12.54254 | 7721 ft | 272 kts | 30° |
| 2026-05-07 18:33 | 55.25387 | 12.55895 | 7571 ft | 271 kts | 30° |
| 2026-05-07 18:33 | 55.27003 | 12.57510 | 7420 ft | 271 kts | 30° |
| 2026-05-07 18:33 | 55.28643 | 12.59152 | 7267 ft | 269 kts | 30° |
| 2026-05-07 18:34 | 55.30270 | 12.60783 | 7119 ft | 269 kts | 30° |
| 2026-05-07 18:34 | 55.31894 | 12.62412 | 6965 ft | 269 kts | 30° |
| 2026-05-07 18:34 | 55.33497 | 12.64021 | 6826 ft | 268 kts | 30° |
| 2026-05-07 18:34 | 55.35115 | 12.65648 | 6678 ft | 267 kts | 30° |
| 2026-05-07 18:35 | 55.36721 | 12.67263 | 6528 ft | 266 kts | 30° |
| 2026-05-07 18:35 | 55.38333 | 12.68887 | 6369 ft | 266 kts | 30° |
| 2026-05-07 18:35 | 55.39934 | 12.70501 | 6211 ft | 265 kts | 30° |
| 2026-05-07 18:35 | 55.41513 | 12.72094 | 6054 ft | 264 kts | 30° |
| 2026-05-07 18:36 | 55.43114 | 12.73711 | 5892 ft | 263 kts | 30° |
| 2026-05-07 18:36 | 55.44710 | 12.75324 | 5741 ft | 263 kts | 30° |
| 2026-05-07 18:36 | 55.46295 | 12.76927 | 5587 ft | 262 kts | 30° |
| 2026-05-07 18:36 | 55.47858 | 12.78510 | 5433 ft | 262 kts | 30° |
| 2026-05-07 18:37 | 55.49437 | 12.80110 | 5239 ft | 262 kts | 29° |
| 2026-05-07 18:37 | 55.51014 | 12.81709 | 4987 ft | 259 kts | 29° |
| 2026-05-07 18:37 | 55.52563 | 12.83283 | 4732 ft | 259 kts | 29° |
| 2026-05-07 18:37 | 55.54133 | 12.84878 | 4465 ft | 258 kts | 29° |
| 2026-05-07 18:38 | 55.55689 | 12.86460 | 4205 ft | 257 kts | 29° |
| 2026-05-07 18:38 | 55.57243 | 12.88042 | 3947 ft | 256 kts | 29° |
| 2026-05-07 18:38 | 55.58772 | 12.89600 | 3690 ft | 256 kts | 29° |
| 2026-05-07 18:38 | 55.60313 | 12.91172 | 3438 ft | 254 kts | 29° |
| 2026-05-07 18:39 | 55.61848 | 12.92739 | 3174 ft | 254 kts | 29° |
| 2026-05-07 18:39 | 55.63376 | 12.94300 | 3030 ft | 252 kts | 29° |
| 2026-05-07 18:39 | 55.64879 | 12.95838 | 3021 ft | 253 kts | 29° |
| 2026-05-07 18:39 | 55.66406 | 12.97399 | 3019 ft | 253 kts | 29° |
| 2026-05-07 18:40 | 55.67930 | 12.98960 | 3020 ft | 253 kts | 29° |
| 2026-05-07 18:40 | 55.69457 | 13.00525 | 3021 ft | 253 kts | 29° |
| 2026-05-07 18:40 | 55.71077 | 13.01560 | 3017 ft | 251 kts | 4° |
| 2026-05-07 18:40 | 55.72799 | 13.01076 | 3020 ft | 252 kts | 335° |
| 2026-05-07 18:41 | 55.74148 | 12.99265 | 3020 ft | 237 kts | 315° |
| 2026-05-07 18:41 | 55.75269 | 12.97228 | 3015 ft | 222 kts | 315° |
| 2026-05-07 18:41 | 55.76314 | 12.95321 | 3017 ft | 208 kts | 315° |
| 2026-05-07 18:41 | 55.77101 | 12.93204 | 3019 ft | 215 kts | 286° |
| 2026-05-07 18:42 | 55.77019 | 12.90582 | 3021 ft | 218 kts | 250° |
| 2026-05-07 18:42 | 55.76219 | 12.88288 | 3018 ft | 220 kts | 230° |
| 2026-05-07 18:42 | 55.75171 | 12.86413 | 3010 ft | 203 kts | 224° |
| 2026-05-07 18:42 | 55.74136 | 12.84797 | 3028 ft | 200 kts | 223° |
| 2026-05-07 18:43 | 55.73108 | 12.83189 | 2891 ft | 197 kts | 223° |
| 2026-05-07 18:43 | 55.72118 | 12.81649 | 2631 ft | 182 kts | 223° |
| 2026-05-07 18:43 | 55.71203 | 12.80221 | 2377 ft | 168 kts | 223° |
| 2026-05-07 18:43 | 55.70373 | 12.78928 | 2153 ft | 151 kts | 223° |
| 2026-05-07 18:44 | 55.69630 | 12.77771 | 1952 ft | 138 kts | 224° |
| 2026-05-07 18:44 | 55.68912 | 12.76652 | 1761 ft | 138 kts | 223° |
| 2026-05-07 18:44 | 55.68193 | 12.75533 | 1573 ft | 137 kts | 224° |
| 2026-05-07 18:44 | 55.67480 | 12.74424 | 1389 ft | 135 kts | 223° |
| 2026-05-07 18:45 | 55.66771 | 12.73321 | 1200 ft | 136 kts | 224° |
| 2026-05-07 18:45 | 55.66072 | 12.72236 | 1007 ft | 134 kts | 224° |
| 2026-05-07 18:45 | 55.65368 | 12.71143 | 811 ft | 133 kts | 223° |
| 2026-05-07 18:45 | 55.64689 | 12.70088 | 635 ft | 128 kts | 222° |
| 2026-05-07 18:46 | 55.64033 | 12.69069 | 446 ft | 125 kts | 221° |
| 2026-05-07 18:46 | 55.63381 | 12.68059 | 282 ft | 125 kts | 221° |
| 2026-05-07 18:46 | 55.62729 | 12.67047 | 108 ft | 124 kts | 221° |
| 2026-05-07 18:46 | 55.62094 | 12.66069 | 17 ft | 114 kts | 221° |
| 2026-05-07 18:47 | 55.61579 | 12.65271 | 16 ft | 72 kts | 221° |
| 2026-05-07 18:47 | 55.61355 | 12.64911 | 21 ft | 32 kts | 230° |
| 2026-05-07 18:47 | 55.61253 | 12.64604 | 19 ft | 28 kts | 250° |
| 2026-05-07 18:47 | 55.61203 | 12.64354 | 19 ft | 18 kts | 251° |
| 2026-05-07 18:48 | 55.61198 | 12.64161 | 16 ft | 0 kts | 299° |
| 2026-05-07 18:50 | 55.61198 | 12.64160 | 16 ft | 1 kts | 299° |
| 2026-05-07 18:50 | 55.61209 | 12.64135 | 16 ft | 5 kts | 314° |
| 2026-05-07 18:50 | 55.61252 | 12.64110 | 17 ft | 9 kts | 357° |
| 2026-05-07 18:50 | 55.61321 | 12.64162 | 20 ft | 13 kts | 32° |
| 2026-05-07 18:51 | 55.61415 | 12.64268 | 20 ft | 19 kts | 33° |
| 2026-05-07 18:51 | 55.61533 | 12.64403 | 24 ft | 23 kts | 32° |
| 2026-05-07 18:51 | 55.61670 | 12.64538 | 25 ft | 23 kts | 22° |
| 2026-05-07 18:51 | 55.61846 | 12.64522 | 22 ft | 28 kts | 349° |
| 2026-05-07 18:52 | 55.62036 | 12.64458 | 20 ft | 12 kts | 349° |
| 2026-05-07 18:52 | 55.62095 | 12.64439 | 18 ft | 0 kts | 349° |
| 2026-05-07 18:53 | 55.62113 | 12.64433 | 18 ft | 7 kts | 349° |
| 2026-05-07 18:53 | 55.62186 | 12.64411 | 16 ft | 14 kts | 351° |
| 2026-05-07 18:53 | 55.62292 | 12.64409 | 18 ft | 16 kts | 11° |
| 2026-05-07 18:54 | 55.62400 | 12.64459 | 18 ft | 15 kts | 16° |
| 2026-05-07 18:54 | 55.62499 | 12.64445 | 20 ft | 13 kts | 310° |
| 2026-05-07 18:54 | 55.62563 | 12.64310 | 22 ft | 16 kts | 304° |
| 2026-05-07 18:54 | 55.62621 | 12.64167 | 22 ft | 10 kts | 323° |
| 2026-05-07 18:55 | 55.62690 | 12.64157 | 26 ft | 11 kts | 32° |
| 2026-05-07 18:55 | 55.62696 | 12.64163 | 25 ft | 0 kts | 32° |